Terminal Aerodrome Forecast
Issued by NWS

Home | Current Version | Previous Version | Text Only | Print | Product List | Glossary On
Versions: 1 2 3 4 5 6 7 8 9 10 11 12 13 14 15 16 17 18 19 20 21 22 23 24 25 26 27 28 29 30 31 32 33 34 35 36 37 38 39 40 41 42 43
000
FTUS45 KGJT 270530
TAFASE
TAF
KASE 270530Z 2706/2806 31003KT 2SM -SN BR OVC018
     FM270900 27004KT 4SM BR VCSH BKN020 OVC040
     FM271500 29003KT P6SM OVC050
     FM271800 34005KT P6SM SCT050 BKN120
     FM280000 20005KT P6SM BKN200=

USA.gov is the U.S. government's official web portal to all federal, state and local government web resources and services.